Achtergracht — PCCL — position and weather

sailwx.info

Track history (hours):
 
Tides and Currents Weather Stations Pressure Air Temp Water Temp Dewpoint Dewpoint Depression Visibility Wind Speed Wind Dir Waves Ship Positions

Achtergracht

Last reported at 2015-May-24 06:34 UTC. Time now 2015-May-24 07:18 UTC.
Position N 50°46' E 000°49'.

Length 130 m; beam 19 m; draft 9 m.

Type: Cargo ship. MMSI: 244601000.

Date/timePositionNaut miles runAvg speedWind from/ knotsBaromVisibWave heightAir tempDewpointWater temp
2015-May-24 06:34N 50°46' E 000°49'1313.0
2015-May-24 05:34N 50°53' E 001°06'1211.8
2015-May-24 04:34N 51°01' E 001°21'1110.8
2015-May-24 03:34N 51°08' E 001°34'1111.4
2015-May-24 02:34N 51°16' E 001°47'1313.2
2015-May-24 01:34N 51°27' E 001°57'1514.8
2015-May-24 00:31N 51°39' E 002°13'1415.0
2015-May-23 23:34N 51°49' E 002°29'1514.5
2015-May-23 22:30N 52°02' E 002°44'1413.6
2015-May-23 21:26N 52°13' E 002°59'6312.6
2015-May-23 16:27N 53°01' E 004°05'3214.1
2015-May-23 14:11N 53°27' E 004°37'913.7
2015-May-23 13:30N 53°31' E 004°51'1212.8
2015-May-23 12:34N 53°35' E 005°10'1212.4
2015-May-23 11:33N 53°39' E 005°30'1212.1
2015-May-23 10:33N 53°43' E 005°49'1212.2
2015-May-23 09:32N 53°47' E 006°09'1312.6
2015-May-23 08:29N 53°50' E 006°31'1313.7
2015-May-23 07:31N 53°54' E 006°52'1414.1
2015-May-23 06:34N 53°57' E 007°14'1414.1
2015-May-23 05:33N 54°01' E 007°38'1413.8
2015-May-23 04:34N 54°01' E 008°01'1311.9
2015-May-23 03:27N 53°59' E 008°23'1011.7
2015-May-23 02:33N 53°56' E 008°40'10 9.5
2015-May-23 01:33N 53°51' E 008°54'9 9.4
2015-May-23 00:33N 53°54' E 009°09'1 0.6
2015-May-22 23:33N 53°54' E 009°09'4 3.7
2015-May-22 22:33N 53°57' E 009°14'6 6.3
2015-May-22 21:31N 54°03' E 009°18'6 6.6
2015-May-22 20:33N 54°09' E 009°21'9 8.6
2015-May-22 19:34N 54°13' E 009°34'6 6.2
2015-May-22 18:34N 54°18' E 009°41'7 6.8
2015-May-22 17:33N 54°22' E 009°50'4 4.2
2015-May-22 16:33N 54°20' E 009°57'7 6.6
2015-May-22 15:33N 54°22' E 010°07'1 1.2
2015-May-22 14:31N 54°22' E 010°09'0 0.3
2015-May-22 13:31N 54°22' E 010°09'0 0.0
2015-May-22 12:31N 54°22' E 010°09'0 0.0
2015-May-22 11:31N 54°22' E 010°09'0 0.0
2015-May-22 10:31N 54°22' E 010°09'0 0.0
2015-May-22 09:31N 54°22' E 010°09'0 0.0
2015-May-22 08:31N 54°22' E 010°09'0 0.0
2015-May-22 07:31N 54°22' E 010°09'0 0.0
2015-May-22 06:31N 54°22' E 010°09'0 0.0
2015-May-22 05:31N 54°22' E 010°09'0 0.0
2015-May-22 04:31N 54°22' E 010°09'0 0.0
2015-May-22 03:31N 54°22' E 010°09'0 0.0
2015-May-22 02:34N 54°22' E 010°09'0 0.1
2015-May-22 01:34N 54°22' E 010°09'4 4.1
2015-May-22 00:33N 54°25' E 010°13'1111.3
2015-May-21 23:34N 54°32' E 010°28'1312.6
2015-May-21 22:33N 54°35' E 010°49'1313.0
2015-May-21 21:34N 54°36' E 011°12'1313.4
2015-May-21 20:33N 54°30' E 011°32'1313.1
2015-May-21 19:34N 54°26' E 011°54'1211.4
2015-May-21 18:33N 54°32' E 012°12'3912.4
2015-May-21 15:25N 54°53' E 013°08'1112.8
2015-May-21 14:33N 54°56' E 013°27'1512.8
2015-May-21 13:22N 55°02' E 013°51'2212.1
2015-May-21 11:33N 55°16' E 014°21'1313.0
2015-May-21 10:33N 55°26' E 014°36'1312.9
2015-May-21 09:33N 55°33' E 014°54'1313.2
2015-May-21 08:33N 55°40' E 015°15'1413.3
2015-May-21 07:31N 55°46' E 015°36'1313.3
2015-May-21 06:33N 55°52' E 015°56'8812.5
2015-May-20 23:32N 57°06' E 017°24'1313.2
2015-May-20 22:33N 57°18' E 017°32'1413.1
2015-May-20 21:29N 57°31' E 017°41'81 4.3
2015-May-20 02:33N 58°37' E 016°15'0 0.0
2015-May-20 01:33N 58°37' E 016°15'0 0.0
2015-May-20 00:33N 58°37' E 016°15'0 0.0
2015-May-19 23:33N 58°37' E 016°15'0 0.0
2015-May-19 22:33N 58°37' E 016°15'0 0.0
2015-May-19 21:33N 58°37' E 016°15'0 0.0
2015-May-19 20:33N 58°37' E 016°15'0 0.0
2015-May-19 19:33N 58°37' E 016°15'0 0.0
2015-May-19 18:33N 58°37' E 016°15'0 0.0
2015-May-19 17:33N 58°37' E 016°15'0 0.0
2015-May-19 16:30N 58°37' E 016°15'0 0.0
2015-May-19 15:33N 58°37' E 016°15'0 0.0
2015-May-19 14:32N 58°37' E 016°15'0 0.0
2015-May-19 13:29N 58°37' E 016°15'0 0.0
2015-May-19 12:26N 58°37' E 016°15'0 0.0
2015-May-19 11:32N 58°37' E 016°15'0 0.0
2015-May-19 10:32N 58°37' E 016°15'0 0.0
2015-May-19 09:32N 58°37' E 016°15'0 0.0
2015-May-19 08:29N 58°37' E 016°15'0 0.0
2015-May-19 07:32N 58°37' E 016°15'0 0.0
2015-May-19 06:29N 58°37' E 016°15'0 0.0
2015-May-19 05:32N 58°37' E 016°15'0 0.0
2015-May-19 04:26N 58°37' E 016°15'0 0.0
2015-May-19 03:32N 58°37' E 016°15'0 0.0
2015-May-19 02:32N 58°37' E 016°15'0 0.0
2015-May-19 01:32N 58°37' E 016°15'0 0.0
2015-May-19 00:26N 58°37' E 016°15'0 0.0
2015-May-18 23:32N 58°37' E 016°15'0 0.0
2015-May-18 22:32N 58°37' E 016°15'0 0.0
2015-May-18 21:32N 58°37' E 016°15'0 0.0
2015-May-18 20:32N 58°37' E 016°15'0 0.0
2015-May-18 19:32N 58°37' E 016°15'0 0.0
2015-May-18 18:32N 58°37' E 016°15'0 0.0
2015-May-18 17:32N 58°37' E 016°15'0 0.0
2015-May-18 16:32N 58°37' E 016°15'0 0.0
2015-May-18 15:32N 58°37' E 016°15'0 0.0
2015-May-18 14:32N 58°37' E 016°15'0 0.0
2015-May-18 13:26N 58°37' E 016°15'0 0.0
2015-May-18 12:32N 58°37' E 016°15'0 0.0
2015-May-18 11:20N 58°37' E 016°15'0 0.0
2015-May-18 10:29N 58°37' E 016°15'0 0.0
2015-May-18 09:23N 58°37' E 016°15'0 0.0
2015-May-18 08:20N 58°37' E 016°15'0 0.0
2015-May-18 07:14N 58°37' E 016°15'0 0.0
2015-May-18 06:20N 58°37' E 016°15'0 0.0
2015-May-18 05:29N 58°37' E 016°15'0 0.0
2015-May-18 04:29N 58°37' E 016°15'0 0.0
2015-May-18 03:32N 58°37' E 016°15'0 0.0
2015-May-18 02:16N 58°37' E 016°15'2 2.8
2015-May-18 01:33N 58°38' E 016°19'1110.8
2015-May-18 00:33N 58°38' E 016°39'1513.1
2015-May-17 23:26N 58°38' E 017°08'  
Track history (hours):
 
Tides and Currents Weather Stations Pressure Air Temp Water Temp Dewpoint Dewpoint Depression Visibility Wind Speed Wind Dir Waves Ship Positions

Achtergracht

Last reported at 2015-May-24 06:34 UTC. Time now 2015-May-24 07:18 UTC.
Position N 50°46' E 000°49'.

Length 130 m; beam 19 m; draft 9 m.

Type: Cargo ship. MMSI: 244601000.

Date/timePositionNaut miles runAvg speedWind from/ knotsBaromVisibWave heightAir tempDewpointWater temp
2015-May-24 06:34N 50°46' E 000°49'1313.0
2015-May-24 05:34N 50°53' E 001°06'1211.8
2015-May-24 04:34N 51°01' E 001°21'1110.8
2015-May-24 03:34N 51°08' E 001°34'1111.4
2015-May-24 02:34N 51°16' E 001°47'1313.2
2015-May-24 01:34N 51°27' E 001°57'1514.8
2015-May-24 00:31N 51°39' E 002°13'1415.0
2015-May-23 23:34N 51°49' E 002°29'1514.5
2015-May-23 22:30N 52°02' E 002°44'1413.6
2015-May-23 21:26N 52°13' E 002°59'6312.6
2015-May-23 16:27N 53°01' E 004°05'3214.1
2015-May-23 14:11N 53°27' E 004°37'913.7
2015-May-23 13:30N 53°31' E 004°51'1212.8
2015-May-23 12:34N 53°35' E 005°10'1212.4
2015-May-23 11:33N 53°39' E 005°30'1212.1
2015-May-23 10:33N 53°43' E 005°49'1212.2
2015-May-23 09:32N 53°47' E 006°09'1312.6
2015-May-23 08:29N 53°50' E 006°31'1313.7
2015-May-23 07:31N 53°54' E 006°52'1414.1
2015-May-23 06:34N 53°57' E 007°14'1414.1
2015-May-23 05:33N 54°01' E 007°38'1413.8
2015-May-23 04:34N 54°01' E 008°01'1311.9
2015-May-23 03:27N 53°59' E 008°23'1011.7
2015-May-23 02:33N 53°56' E 008°40'10 9.5
2015-May-23 01:33N 53°51' E 008°54'9 9.4
2015-May-23 00:33N 53°54' E 009°09'1 0.6
2015-May-22 23:33N 53°54' E 009°09'4 3.7
2015-May-22 22:33N 53°57' E 009°14'6 6.3
2015-May-22 21:31N 54°03' E 009°18'6 6.6
2015-May-22 20:33N 54°09' E 009°21'9 8.6
2015-May-22 19:34N 54°13' E 009°34'6 6.2
2015-May-22 18:34N 54°18' E 009°41'7 6.8
2015-May-22 17:33N 54°22' E 009°50'4 4.2
2015-May-22 16:33N 54°20' E 009°57'7 6.6
2015-May-22 15:33N 54°22' E 010°07'1 1.2
2015-May-22 14:31N 54°22' E 010°09'0 0.3
2015-May-22 13:31N 54°22' E 010°09'0 0.0
2015-May-22 12:31N 54°22' E 010°09'0 0.0
2015-May-22 11:31N 54°22' E 010°09'0 0.0
2015-May-22 10:31N 54°22' E 010°09'0 0.0
2015-May-22 09:31N 54°22' E 010°09'0 0.0
2015-May-22 08:31N 54°22' E 010°09'0 0.0
2015-May-22 07:31N 54°22' E 010°09'0 0.0
2015-May-22 06:31N 54°22' E 010°09'0 0.0
2015-May-22 05:31N 54°22' E 010°09'0 0.0
2015-May-22 04:31N 54°22' E 010°09'0 0.0
2015-May-22 03:31N 54°22' E 010°09'0 0.0
2015-May-22 02:34N 54°22' E 010°09'0 0.1
2015-May-22 01:34N 54°22' E 010°09'4 4.1
2015-May-22 00:33N 54°25' E 010°13'1111.3
2015-May-21 23:34N 54°32' E 010°28'1312.6
2015-May-21 22:33N 54°35' E 010°49'1313.0
2015-May-21 21:34N 54°36' E 011°12'1313.4
2015-May-21 20:33N 54°30' E 011°32'1313.1
2015-May-21 19:34N 54°26' E 011°54'1211.4
2015-May-21 18:33N 54°32' E 012°12'3912.4
2015-May-21 15:25N 54°53' E 013°08'1112.8
2015-May-21 14:33N 54°56' E 013°27'1512.8
2015-May-21 13:22N 55°02' E 013°51'2212.1
2015-May-21 11:33N 55°16' E 014°21'1313.0
2015-May-21 10:33N 55°26' E 014°36'1312.9
2015-May-21 09:33N 55°33' E 014°54'1313.2
2015-May-21 08:33N 55°40' E 015°15'1413.3
2015-May-21 07:31N 55°46' E 015°36'1313.3
2015-May-21 06:33N 55°52' E 015°56'8812.5
2015-May-20 23:32N 57°06' E 017°24'1313.2
2015-May-20 22:33N 57°18' E 017°32'1413.1
2015-May-20 21:29N 57°31' E 017°41'81 4.3
2015-May-20 02:33N 58°37' E 016°15'0 0.0
2015-May-20 01:33N 58°37' E 016°15'0 0.0
2015-May-20 00:33N 58°37' E 016°15'0 0.0
2015-May-19 23:33N 58°37' E 016°15'0 0.0
2015-May-19 22:33N 58°37' E 016°15'0 0.0
2015-May-19 21:33N 58°37' E 016°15'0 0.0
2015-May-19 20:33N 58°37' E 016°15'0 0.0
2015-May-19 19:33N 58°37' E 016°15'0 0.0
2015-May-19 18:33N 58°37' E 016°15'0 0.0
2015-May-19 17:33N 58°37' E 016°15'0 0.0
2015-May-19 16:30N 58°37' E 016°15'0 0.0
2015-May-19 15:33N 58°37' E 016°15'0 0.0
2015-May-19 14:32N 58°37' E 016°15'0 0.0
2015-May-19 13:29N 58°37' E 016°15'0 0.0
2015-May-19 12:26N 58°37' E 016°15'0 0.0
2015-May-19 11:32N 58°37' E 016°15'0 0.0
2015-May-19 10:32N 58°37' E 016°15'0 0.0
2015-May-19 09:32N 58°37' E 016°15'0 0.0
2015-May-19 08:29N 58°37' E 016°15'0 0.0
2015-May-19 07:32N 58°37' E 016°15'0 0.0
2015-May-19 06:29N 58°37' E 016°15'0 0.0
2015-May-19 05:32N 58°37' E 016°15'0 0.0
2015-May-19 04:26N 58°37' E 016°15'0 0.0
2015-May-19 03:32N 58°37' E 016°15'0 0.0
2015-May-19 02:32N 58°37' E 016°15'0 0.0
2015-May-19 01:32N 58°37' E 016°15'0 0.0
2015-May-19 00:26N 58°37' E 016°15'0 0.0
2015-May-18 23:32N 58°37' E 016°15'0 0.0
2015-May-18 22:32N 58°37' E 016°15'0 0.0
2015-May-18 21:32N 58°37' E 016°15'0 0.0
2015-May-18 20:32N 58°37' E 016°15'0 0.0
2015-May-18 19:32N 58°37' E 016°15'0 0.0
2015-May-18 18:32N 58°37' E 016°15'0 0.0
2015-May-18 17:32N 58°37' E 016°15'0 0.0
2015-May-18 16:32N 58°37' E 016°15'0 0.0
2015-May-18 15:32N 58°37' E 016°15'0 0.0
2015-May-18 14:32N 58°37' E 016°15'0 0.0
2015-May-18 13:26N 58°37' E 016°15'0 0.0
2015-May-18 12:32N 58°37' E 016°15'0 0.0
2015-May-18 11:20N 58°37' E 016°15'0 0.0
2015-May-18 10:29N 58°37' E 016°15'0 0.0
2015-May-18 09:23N 58°37' E 016°15'0 0.0
2015-May-18 08:20N 58°37' E 016°15'0 0.0
2015-May-18 07:14N 58°37' E 016°15'0 0.0
2015-May-18 06:20N 58°37' E 016°15'0 0.0
2015-May-18 05:29N 58°37' E 016°15'0 0.0
2015-May-18 04:29N 58°37' E 016°15'0 0.0
2015-May-18 03:32N 58°37' E 016°15'0 0.0
2015-May-18 02:16N 58°37' E 016°15'2 2.8
2015-May-18 01:33N 58°38' E 016°19'1110.8
2015-May-18 00:33N 58°38' E 016°39'1513.1
2015-May-17 23:26N 58°38' E 017°08'  

Dump ship's entire track history